createdAt,value
2023-03-12T00:06:35.391Z,13.85
2023-03-12T00:21:37.472Z,13.77
2023-03-12T00:36:41.592Z,16.33
2023-03-12T00:51:43.901Z,19.67
2023-03-12T01:06:45.942Z,15.88
2023-03-12T01:21:48.092Z,16.17
2023-03-12T01:36:50.273Z,13.40
2023-03-12T01:52:06.960Z,13.48
2023-03-12T02:07:18.325Z,11.43
2023-03-12T02:22:21.423Z,13.18
2023-03-12T02:37:23.449Z,11.98
2023-03-12T02:52:25.516Z,13.05
2023-03-12T03:07:27.613Z,13.63
2023-03-12T03:22:29.616Z,13.40
2023-03-12T03:37:31.698Z,11.57
2023-03-12T03:52:33.913Z,8.82
2023-03-12T04:07:35.982Z,10.05
2023-03-12T04:22:38.172Z,8.43
2023-03-12T04:37:40.199Z,8.10
2023-03-12T04:52:42.276Z,9.50
2023-03-12T05:07:44.393Z,6.78
2023-03-12T05:22:46.473Z,8.52
2023-03-12T05:37:48.870Z,10.05
2023-03-12T05:52:51.029Z,8.27
2023-03-12T06:07:53.110Z,8.55
2023-03-12T06:22:55.173Z,4.88
2023-03-12T06:37:57.261Z,6.78
2023-03-12T06:52:59.264Z,4.47
2023-03-12T07:08:01.372Z,2.08
2023-03-12T07:23:03.440Z,3.08
2023-03-12T07:38:06.321Z,3.45
2023-03-12T07:53:08.642Z,1.15
2023-03-12T08:08:10.933Z,3.45
2023-03-12T08:23:13.437Z,5.05
2023-03-12T08:38:15.763Z,2.85
2023-03-12T08:53:18.232Z,3.45
2023-03-12T09:08:20.564Z,2.78
2023-03-12T09:23:23.374Z,5.53
2023-03-12T09:38:26.198Z,4.60
2023-03-12T09:53:41.446Z,6.88
2023-03-12T10:09:11.167Z,6.75
2023-03-12T10:24:41.182Z,2.97
2023-03-12T10:39:43.238Z,4.20
2023-03-12T10:54:48.388Z,2.92
2023-03-12T11:10:16.333Z,3.28
2023-03-12T11:25:29.253Z,4.05
2023-03-12T11:41:02.622Z,3.47
2023-03-12T11:56:28.996Z,1.67
2023-03-12T12:11:51.347Z,2.75
2023-03-12T12:26:56.177Z,3.25
2023-03-12T12:42:04.367Z,2.63
2023-03-12T12:57:20.700Z,2.33
2023-03-12T13:12:25.571Z,5.00
2023-03-12T13:27:36.574Z,5.13
2023-03-12T13:42:42.083Z,3.20
2023-03-12T13:57:51.754Z,3.53
2023-03-12T14:13:08.235Z,6.70
2023-03-12T14:28:18.221Z,3.63
2023-03-12T14:43:25.538Z,5.77
2023-03-12T14:58:28.448Z,8.48
2023-03-12T15:13:31.081Z,3.40
2023-03-12T15:28:33.444Z,4.07
2023-03-12T15:43:38.119Z,4.35
2023-03-12T15:58:42.400Z,3.97
2023-03-12T16:13:48.681Z,7.10
2023-03-12T16:28:51.628Z,7.10
2023-03-12T16:43:55.546Z,8.18
2023-03-12T16:59:02.902Z,14.23
2023-03-12T17:14:16.598Z,10.60
2023-03-12T17:29:19.541Z,17.42
2023-03-12T17:44:22.523Z,55.17
2023-03-12T17:59:25.327Z,10.00
2023-03-12T18:14:28.459Z,13.32
2023-03-12T18:29:31.800Z,14.77
2023-03-12T18:44:35.241Z,18.27
2023-03-12T18:59:38.933Z,52.47
2023-03-12T19:14:42.091Z,33.55
2023-03-12T19:29:49.191Z,17.85
2023-03-12T19:44:53.405Z,26.45
2023-03-12T19:59:58.267Z,37.70
2023-03-12T20:15:01.653Z,22.45
2023-03-12T20:30:06.010Z,23.10
2023-03-12T20:45:09.741Z,18.00
2023-03-12T21:00:13.133Z,21.90
2023-03-12T21:15:15.964Z,20.25
2023-03-12T21:30:18.527Z,22.80
2023-03-12T21:45:20.987Z,20.13
2023-03-12T22:00:23.114Z,17.77
2023-03-12T22:15:25.255Z,17.20
2023-03-12T22:30:27.340Z,20.40
2023-03-12T22:45:29.341Z,19.17
2023-03-12T23:00:31.341Z,23.98
2023-03-12T23:15:40.809Z,32.15
2023-03-12T23:30:43.675Z,23.98
2023-03-12T23:45:46.549Z,25.05
